Time;durP1;ratioP1;P1;durP2;ratioP2;P2;SDS_P1;SDS_P2;PMS_P1;PMS_P2;Temp;Humidity;BMP_temperature;BMP_pressure;BME280_temperature;BME280_humidity;BME280_pressure;Samples;Min_cycle;Max_cycle;Signal;HPM_P1;HPM_P2
2023/08/15 00:02:05;;;;;;;5.23;3.77;;;24.60;99.90;;;;;;6110524;23;20370;-82
2023/08/15 00:04:59;;;;;;;3.87;3.23;;;24.60;99.90;;;;;;6110045;23;20416;-82
2023/08/15 00:11:37;;;;;;;3.40;3.10;;;24.20;99.90;;;;;;6149620;23;20474;-82
2023/08/15 00:17:43;;;;;;;4.90;3.63;;;24.60;99.90;;;;;;6169620;23;20434;-82
2023/08/15 00:20:29;;;;;;;4.53;4.13;;;24.30;99.90;;;;;;6155819;23;20397;-85
2023/08/15 00:23:49;;;;;;;3.50;3.20;;;24.50;99.90;;;;;;6140302;23;20410;-84
2023/08/15 00:27:03;;;;;;;3.13;2.90;;;24.50;99.90;;;;;;6160241;23;20476;-83
2023/08/15 00:30:37;;;;;;;4.57;4.17;;;24.80;99.90;;;;;;6160135;23;20437;-84
2023/08/15 00:33:37;;;;;;;3.83;3.53;;;24.30;99.90;;;;;;6150389;23;20490;-82
2023/08/15 00:39:09;;;;;;;3.33;3.13;;;24.00;99.90;;;;;;6165486;23;20445;-83
2023/08/15 00:42:18;;;;;;;3.77;3.47;;;24.50;99.90;;;;;;6077869;23;20421;-83
2023/08/15 00:45:22;;;;;;;3.93;3.63;;;24.00;99.90;;;;;;6140256;23;20418;-81
2023/08/15 00:48:33;;;;;;;;;;;;;;;;;;;;;
2023/08/15 00:51:41;;;;;;;4.53;3.43;;;24.80;99.90;;;;;;6172761;23;20454;-82
2023/08/15 00:54:52;;;;;;;4.50;4.00;;;24.50;99.90;;;;;;6175857;23;20403;-83
2023/08/15 01:01:21;;;;;;;3.90;3.40;;;24.10;99.90;;;;;;6149254;23;20435;-83
2023/08/15 01:04:19;;;;;;;4.10;3.70;;;24.80;99.90;;;;;;6132205;23;20450;-84
2023/08/15 01:10:23;;;;;;;4.13;3.73;;;24.00;99.90;;;;;;6128055;23;20467;-84
2023/08/15 01:13:21;;;;;;;3.93;3.63;;;24.40;99.90;;;;;;6127631;23;21193;-85
2023/08/15 01:17:12;;;;;;;5.23;3.90;;;25.70;99.90;;;;;;6124391;23;20769;-83
2023/08/15 01:23:50;;;;;;;3.60;3.30;;;24.80;99.90;;;;;;6126536;23;20360;-85
2023/08/15 01:26:46;;;;;;;4.17;3.40;;;24.60;99.90;;;;;;6100800;23;20470;-85
2023/08/15 01:30:03;;;;;;;;;;;;;;;;;;;;;
2023/08/15 01:33:19;;;;;;;4.20;3.77;;;24.50;99.90;;;;;;6127706;23;20482;-81
2023/08/15 01:39:30;;;;;;;4.80;4.40;;;23.80;99.90;;;;;;6135927;23;20411;-84
2023/08/15 01:42:20;;;;;;;4.10;3.80;;;24.80;99.90;;;;;;6105680;23;20566;-84
2023/08/15 01:45:28;;;;;;;4.37;3.97;;;24.20;99.90;;;;;;6093616;23;20516;-83
2023/08/15 01:51:57;;;;;;;5.90;3.90;;;23.50;99.90;;;;;;6106501;23;20440;-83
2023/08/15 01:54:37;;;;;;;3.53;3.23;;;23.10;99.90;;;;;;6102580;23;20411;-81
2023/08/15 01:57:18;;;;;;;3.90;3.60;;;23.50;99.90;;;;;;6100324;23;20407;-82
2023/08/15 01:59:47;;;;;;;3.83;3.40;;;23.30;99.90;;;;;;6124730;23;20803;-83
2023/08/15 02:02:20;;;;;;;4.23;3.40;;;24.20;99.90;;;;;;6099118;23;20415;-84
2023/08/15 02:05:02;;;;;;;3.53;3.23;;;24.60;99.90;;;;;;6099926;23;20408;-83
2023/08/15 02:07:44;;;;;;;4.53;4.00;;;23.10;99.90;;;;;;6101201;23;20415;-81
2023/08/15 02:10:30;;;;;;;3.63;3.33;;;23.70;99.90;;;;;;6100601;23;20443;-81
2023/08/15 02:12:57;;;;;;;4.90;4.00;;;23.30;99.90;;;;;;6098800;23;20746;-80
2023/08/15 02:15:40;;;;;;;5.63;3.80;;;23.30;99.90;;;;;;6124422;23;20440;-83
2023/08/15 02:18:42;;;;;;;3.43;3.20;;;23.90;99.90;;;;;;6105272;23;20412;-83
2023/08/15 02:22:04;;;;;;;4.97;3.63;;;24.40;99.90;;;;;;6135278;23;20423;-83
2023/08/15 02:24:41;;;;;;;3.53;3.33;;;24.50;99.90;;;;;;6108451;23;21259;-82
2023/08/15 02:27:10;;;;;;;4.30;3.90;;;24.40;99.90;;;;;;6115366;23;20475;-84
2023/08/15 02:30:08;;;;;;;4.93;4.00;;;23.90;99.90;;;;;;6116178;23;20392;-84
2023/08/15 02:32:44;;;;;;;5.77;4.50;;;23.70;99.90;;;;;;6102421;23;20459;-82
2023/08/15 02:35:32;;;;;;;5.93;4.90;;;24.00;99.90;;;;;;6136662;23;20473;-80
2023/08/15 02:38:45;;;;;;;5.10;4.63;;;24.40;99.90;;;;;;6127798;23;20439;-85
2023/08/15 02:42:03;;;;;;;5.00;4.50;;;23.50;99.90;;;;;;6091177;23;20733;-81
2023/08/15 02:44:55;;;;;;;6.20;3.90;;;23.40;99.90;;;;;;6129369;23;20430;-83
2023/08/15 02:48:05;;;;;;;4.97;3.90;;;22.70;99.90;;;;;;6124362;23;20491;-85
2023/08/15 02:51:07;;;;;;;4.87;4.40;;;23.40;99.90;;;;;;6134348;23;20449;-83
2023/08/15 02:54:01;;;;;;;5.20;4.50;;;23.40;99.90;;;;;;6128749;23;20415;-83
2023/08/15 02:56:31;;;;;;;6.23;4.30;;;24.30;99.90;;;;;;6122143;23;20850;-83
2023/08/15 02:59:01;;;;;;;6.03;5.07;;;23.70;99.90;;;;;;6119173;23;20415;-82
2023/08/15 03:01:42;;;;;;;5.73;4.30;;;23.40;99.90;;;;;;6138561;23;20430;-84
2023/08/15 03:04:29;;;;;;;5.47;4.97;;;23.00;99.90;;;;;;6129710;23;20452;-84
2023/08/15 03:07:17;;;;;;;5.17;4.77;;;23.90;99.90;;;;;;6129607;23;20442;-82
2023/08/15 03:13:39;;;;;;;7.30;5.80;;;23.80;99.90;;;;;;6157563;23;20402;-87
2023/08/15 03:16:15;;;;;;;6.33;5.07;;;24.30;99.90;;;;;;6115550;23;20994;-83
2023/08/15 03:19:05;;;;;;;6.40;5.80;;;23.70;99.90;;;;;;6156678;23;20467;-83
2023/08/15 03:21:50;;;;;;;5.97;5.40;;;23.90;99.90;;;;;;6132941;23;20429;-84
2023/08/15 03:24:28;;;;;;;5.80;5.20;;;23.10;99.90;;;;;;6156465;23;20731;-85
2023/08/15 03:26:56;;;;;;;5.40;4.90;;;23.90;99.90;;;;;;6157914;23;20441;-83
2023/08/15 03:29:43;;;;;;;5.03;4.63;;;22.90;99.90;;;;;;6135457;23;20542;-83
2023/08/15 03:32:56;;;;;;;5.43;4.93;;;23.10;99.90;;;;;;6132462;23;20438;-85
2023/08/15 03:38:49;;;;;;;5.40;4.90;;;23.70;99.90;;;;;;6148356;23;20441;-84
2023/08/15 03:41:33;;;;;;;6.97;6.27;;;23.30;99.90;;;;;;6136756;23;20407;-84
2023/08/15 03:44:31;;;;;;;6.40;5.80;;;23.20;99.90;;;;;;6129037;23;20406;-82
2023/08/15 03:47:12;;;;;;;5.70;4.93;;;23.40;99.90;;;;;;6140667;23;20434;-82
2023/08/15 03:50:22;;;;;;;7.17;5.60;;;23.40;99.90;;;;;;6157400;23;20402;-84
2023/08/15 03:56:12;;;;;;;4.63;4.13;;;24.00;99.90;;;;;;6177123;23;20435;-84
2023/08/15 03:58:46;;;;;;;5.13;4.70;;;22.90;99.90;;;;;;6173728;23;20827;-82
2023/08/15 04:01:20;;;;;;;6.07;4.87;;;22.80;99.90;;;;;;6132555;23;20497;-83
2023/08/15 04:03:54;;;;;;;6.03;5.53;;;23.30;99.90;;;;;;6120256;23;20505;-82
2023/08/15 04:06:26;;;;;;;5.93;4.87;;;23.40;99.90;;;;;;6131198;23;20529;-80
2023/08/15 04:08:53;;;;;;;6.83;5.07;;;22.70;99.90;;;;;;6129959;23;20423;-82
2023/08/15 04:11:20;;;;;;;5.40;4.87;;;22.70;99.90;;;;;;6129633;23;20457;-82
2023/08/15 04:13:49;;;;;;;5.60;5.10;;;23.40;99.90;;;;;;6155654;23;20462;-81
2023/08/15 04:16:16;;;;;;;5.47;4.97;;;23.30;99.90;;;;;;6137643;23;20458;-83
2023/08/15 04:18:53;;;;;;;5.80;5.20;;;23.70;99.90;;;;;;6150078;23;20425;-85
2023/08/15 04:21:23;;;;;;;6.00;5.40;;;23.10;99.90;;;;;;6149113;23;20447;-83
2023/08/15 04:23:49;;;;;;;6.37;5.40;;;22.50;99.90;;;;;;6137134;23;20423;-84
2023/08/15 04:26:17;;;;;;;5.77;5.33;;;23.10;99.90;;;;;;6136447;23;20423;-81
2023/08/15 04:28:47;;;;;;;6.20;5.23;;;23.70;99.90;;;;;;6109971;23;20442;-81
2023/08/15 04:31:23;;;;;;;5.70;5.30;;;22.50;99.90;;;;;;6133941;23;20456;-81
2023/08/15 04:33:55;;;;;;;8.37;5.70;;;22.20;99.90;;;;;;6133262;23;20407;-84
2023/08/15 04:36:22;;;;;;;7.83;5.70;;;23.30;99.90;;;;;;6147071;23;20431;-82
2023/08/15 04:38:49;;;;;;;6.30;5.67;;;22.80;99.90;;;;;;6151260;23;20418;-84
2023/08/15 04:41:26;;;;;;;7.50;6.43;;;24.20;99.90;;;;;;6146041;23;20410;-82
2023/08/15 04:44:24;;;;;;;6.57;5.00;;;23.80;99.90;;;;;;6136672;23;20445;-80
2023/08/15 04:46:58;;;;;;;7.10;5.40;;;22.60;99.90;;;;;;6132329;23;20434;-80
2023/08/15 04:49:34;;;;;;;8.20;5.20;;;23.30;99.90;;;;;;6133300;23;20410;-83
2023/08/15 04:52:17;;;;;;;4.20;3.80;;;22.50;99.90;;;;;;6133107;23;20454;-83
2023/08/15 04:55:06;;;;;;;3.70;2.77;;;23.00;99.90;;;;;;6133562;23;20661;-84
2023/08/15 04:57:39;;;;;;;3.27;2.97;;;22.70;99.90;;;;;;6132120;23;20426;-84
2023/08/15 05:00:11;;;;;;;3.30;3.00;;;22.70;99.90;;;;;;6158501;23;20502;-83
2023/08/15 05:02:48;;;;;;;4.60;4.00;;;21.90;99.90;;;;;;6131659;23;21316;-84
2023/08/15 05:05:21;;;;;;;3.27;3.07;;;23.20;99.90;;;;;;6125934;23;20453;-84
2023/08/15 05:08:06;;;;;;;3.00;2.80;;;21.70;99.90;;;;;;6131679;23;20423;-81
2023/08/15 05:10:55;;;;;;;3.27;2.57;;;23.20;99.90;;;;;;6133758;23;20450;-84
2023/08/15 05:13:43;;;;;;;4.40;2.80;;;22.80;99.90;;;;;;6133484;23;20415;-83
2023/08/15 05:16:30;;;;;;;3.63;3.33;;;22.80;99.90;;;;;;6134575;23;20442;-84
2023/08/15 05:19:05;;;;;;;2.70;2.50;;;22.30;99.90;;;;;;6131752;23;20422;-82
2023/08/15 05:21:49;;;;;;;4.33;2.30;;;22.10;99.90;;;;;;6131552;23;20510;-83
2023/08/15 05:24:53;;;;;;;2.67;2.20;;;21.80;99.90;;;;;;6133531;23;20407;-83
2023/08/15 05:27:29;;;;;;;3.43;2.70;;;22.90;99.90;;;;;;6130212;23;20896;-83
2023/08/15 05:30:00;;;;;;;5.93;3.30;;;21.30;99.90;;;;;;6131051;23;20419;-83
2023/08/15 05:32:31;;;;;;;4.10;2.90;;;23.50;99.90;;;;;;6172813;23;20463;-82
2023/08/15 05:35:01;;;;;;;3.57;2.47;;;22.00;99.90;;;;;;6130732;23;20450;-84
2023/08/15 05:37:31;;;;;;;3.10;2.40;;;22.40;99.90;;;;;;6130000;23;20486;-82
2023/08/15 05:43:08;;;;;;;2.50;2.30;;;22.50;99.90;;;;;;6162376;23;21053;-83
2023/08/15 05:45:53;;;;;;;2.30;1.90;;;22.60;99.90;;;;;;6128185;23;20454;-83
2023/08/15 05:48:30;;;;;;;2.53;2.30;;;22.20;99.90;;;;;;6129221;23;20423;-83
2023/08/15 05:51:32;;;;;;;2.23;2.03;;;22.50;99.90;;;;;;6131281;23;20446;-82
2023/08/15 05:54:21;;;;;;;3.50;2.00;;;22.30;99.90;;;;;;6141000;23;20532;-83
2023/08/15 05:57:14;;;;;;;2.60;1.83;;;22.60;99.90;;;;;;6134037;23;20391;-83
2023/08/15 06:02:51;;;;;;;2.40;1.80;;;22.20;99.90;;;;;;6154900;23;20438;-83
2023/08/15 06:05:34;;;;;;;;;;;;;;;;;;;;;
2023/08/15 06:08:59;;;;;;;2.30;2.10;;;23.40;99.90;;;;;;6137011;23;20517;-82
2023/08/15 06:12:00;;;;;;;1.90;1.73;;;22.80;99.90;;;;;;6130630;23;20476;-83
2023/08/15 06:14:52;;;;;;;1.77;1.53;;;22.80;99.90;;;;;;6129860;23;20447;-83
2023/08/15 06:33:21;;;;;;;2.10;1.60;;;27.70;98.60;;;;;;6146151;23;20466;-83
2023/08/15 06:36:13;;;;;;;1.70;1.40;;;26.80;99.50;;;;;;6149163;23;20498;-82
2023/08/15 07:16:45;;;;;;;2.43;1.97;;;23.20;99.90;;;;;;6058134;23;20537;-83
2023/08/15 07:19:19;;;;;;;3.43;1.90;;;23.50;99.90;;;;;;6035750;23;20418;-84
2023/08/15 07:22:15;;;;;;;3.13;2.13;;;24.30;99.90;;;;;;6037012;23;20428;-83
2023/08/15 07:27:27;;;;;;;2.93;2.20;;;24.20;99.90;;;;;;6169298;23;20454;-84
2023/08/15 07:30:08;;;;;;;1.57;1.47;;;24.60;99.90;;;;;;6170401;23;20421;-82
2023/08/15 07:36:22;;;;;;;2.37;2.17;;;24.80;99.90;;;;;;6158326;23;20447;-82
2023/08/15 07:39:35;;;;;;;;;;;;;;;;;;;;;
2023/08/15 07:42:49;;;;;;;;;;;;;;;;;;;;;
2023/08/15 08:21:36;;;;;;;;;;;;;;;;;;;;;
2023/08/15 08:24:19;;;;;;;4.13;2.80;;;25.80;99.90;;;;;;6002511;23;20422;-85
2023/08/15 08:31:38;;;;;;;3.87;3.57;;;24.80;99.90;;;;;;6130090;23;20351;-83
2023/08/15 08:34:35;;;;;;;4.93;3.20;;;25.10;99.90;;;;;;6107769;23;20842;-83
2023/08/15 08:37:33;;;;;;;5.40;3.73;;;25.30;99.90;;;;;;6108349;23;20441;-83
2023/08/15 08:41:29;;;;;;;6.20;4.77;;;25.50;99.90;;;;;;6041381;23;20385;-85
2023/08/15 09:23:59;;;;;;;;;;;;;;;;;;;;;
2023/08/15 09:30:04;;;;;;;4.43;4.03;;;24.60;99.90;;;;;;6141790;23;20505;-84
2023/08/15 09:36:10;;;;;;;3.93;3.53;;;24.50;99.90;;;;;;6170061;23;20459;-83
2023/08/15 09:39:21;;;;;;;3.97;3.53;;;24.80;99.90;;;;;;6147751;23;20439;-82
2023/08/15 09:42:14;;;;;;;;;;;;;;;;;;;;;
2023/08/15 09:45:36;;;;;;;7.33;3.67;;;25.10;99.90;;;;;;6151682;23;20391;-85
2023/08/15 09:48:40;;;;;;;4.40;3.70;;;24.80;99.90;;;;;;6143980;23;20414;-84
2023/08/15 09:51:36;;;;;;;5.10;4.07;;;24.40;99.90;;;;;;6144180;23;20446;-81
2023/08/15 09:54:40;;;;;;;5.87;4.07;;;24.30;99.90;;;;;;6150101;23;20426;-82
2023/08/15 09:58:38;;;;;;;5.60;3.37;;;24.10;99.90;;;;;;6081904;23;20386;-80
2023/08/15 10:02:43;;;;;;;4.40;3.30;;;24.60;99.90;;;;;;6054963;23;20393;-85
2023/08/15 10:05:44;;;;;;;;;;;;;;;;;;;;;
2023/08/15 10:08:53;;;;;;;11.90;8.23;;;25.00;99.90;;;;;;5963433;23;20400;-82
2023/08/15 10:27:15;;;;;;;5.87;3.50;;;24.20;99.90;;;;;;6108100;23;20527;-84
2023/08/15 10:33:55;;;;;;;8.50;3.27;;;25.90;99.60;;;;;;6147507;23;20391;-84
2023/08/15 10:37:48;;;;;;;;;;;;;;;;;;;;;
2023/08/15 10:41:19;;;;;;;3.53;3.17;;;25.50;99.80;;;;;;6115597;23;20471;-85
2023/08/15 10:44:36;;;;;;;5.10;3.40;;;25.80;99.80;;;;;;6089302;23;20412;-83
2023/08/15 10:47:55;;;;;;;3.93;3.53;;;25.00;99.80;;;;;;6167008;23;20459;-82
2023/08/15 10:51:01;;;;;;;4.17;3.60;;;25.50;99.90;;;;;;6168005;23;20422;-84
2023/08/15 10:57:12;;;;;;;5.77;3.17;;;25.50;99.90;;;;;;6159727;23;20460;-84
2023/08/15 11:00:05;;;;;;;3.90;3.20;;;25.50;99.90;;;;;;6132716;23;20403;-84
2023/08/15 11:02:47;;;;;;;3.20;2.90;;;25.80;99.90;;;;;;6136324;23;20988;-84
2023/08/15 11:06:12;;;;;;;4.63;3.17;;;26.10;99.90;;;;;;6160974;23;20471;-84
2023/08/15 11:09:37;;;;;;;3.80;3.10;;;26.60;99.60;;;;;;6147034;23;20439;-84
2023/08/15 11:12:27;;;;;;;5.67;3.73;;;26.10;99.10;;;;;;6123726;23;20518;-84
2023/08/15 11:15:30;;;;;;;4.90;3.17;;;25.80;99.50;;;;;;6140218;23;20951;-85
2023/08/15 11:18:24;;;;;;;3.10;2.70;;;25.50;99.90;;;;;;6031266;23;20421;-85
2023/08/15 11:21:23;;;;;;;5.63;3.37;;;26.30;99.20;;;;;;6147783;23;20411;-82
2023/08/15 11:24:50;;;;;;;10.23;4.03;;;25.60;99.10;;;;;;6166981;23;20487;-84
2023/08/15 11:27:50;;;;;;;3.80;3.20;;;26.00;99.00;;;;;;6118421;23;20434;-82
2023/08/15 11:30:40;;;;;;;4.00;3.10;;;26.50;98.90;;;;;;6148122;23;20474;-85
2023/08/15 11:34:02;;;;;;;4.60;3.60;;;26.60;98.30;;;;;;6170070;23;20443;-83
2023/08/15 11:39:39;;;;;;;4.30;3.87;;;27.10;96.60;;;;;;6167183;23;20481;-84
2023/08/15 11:43:01;;;;;;;3.53;3.17;;;26.90;97.00;;;;;;5983462;24;20483;-82
2023/08/15 11:45:48;;;;;;;3.30;2.97;;;26.80;98.30;;;;;;6121272;23;20425;-84
2023/08/15 11:51:47;;;;;;;3.67;3.20;;;27.90;96.40;;;;;;6053415;23;20441;-85
2023/08/15 11:54:46;;;;;;;3.43;3.20;;;28.00;97.20;;;;;;6015918;23;20887;-84
2023/08/15 11:58:20;;;;;;;6.73;4.20;;;27.50;97.50;;;;;;6129870;23;21283;-84
2023/08/15 12:03:58;;;;;;;3.60;3.30;;;27.70;96.70;;;;;;6159240;23;20426;-83
2023/08/15 12:06:49;;;;;;;3.33;3.03;;;28.10;96.20;;;;;;6135833;23;20496;-84
2023/08/15 12:09:31;;;;;;;;;;;;;;;;;;;;;
2023/08/15 12:12:36;;;;;;;3.57;3.00;;;27.50;95.90;;;;;;6166044;23;20446;-82
2023/08/15 12:15:12;;;;;;;4.67;3.80;;;28.10;95.40;;;;;;6163954;23;20435;-81
2023/08/15 12:18:02;;;;;;;4.20;3.70;;;28.30;95.60;;;;;;6139577;23;20466;-84
2023/08/15 12:20:52;;;;;;;4.27;3.80;;;29.10;94.20;;;;;;6154498;23;21213;-82
2023/08/15 12:23:42;;;;;;;4.03;3.73;;;29.10;94.30;;;;;;6137041;23;20446;-83
2023/08/15 12:26:31;;;;;;;5.20;3.47;;;28.20;93.70;;;;;;6130751;23;20442;-85
2023/08/15 12:29:10;;;;;;;4.40;4.00;;;28.80;93.80;;;;;;6134152;23;21174;-84
2023/08/15 12:32:19;;;;;;;4.17;3.77;;;29.00;94.50;;;;;;6147879;23;20442;-86
2023/08/15 12:35:20;;;;;;;8.33;4.30;;;28.40;94.50;;;;;;6136048;23;20439;-85
2023/08/15 12:38:03;;;;;;;4.20;3.80;;;28.20;95.60;;;;;;6130795;23;20568;-84
2023/08/15 12:40:55;;;;;;;4.30;4.00;;;27.50;95.70;;;;;;6131155;23;20869;-84
2023/08/15 12:44:02;;;;;;;5.27;4.77;;;27.30;96.30;;;;;;6129658;23;20419;-84
2023/08/15 12:46:43;;;;;;;5.33;4.83;;;27.80;96.00;;;;;;6153201;23;20919;-85
2023/08/15 12:49:36;;;;;;;6.50;5.90;;;26.30;96.50;;;;;;6132737;23;20407;-83
2023/08/15 12:52:21;;;;;;;5.43;4.93;;;26.20;97.70;;;;;;6131591;23;20443;-83
2023/08/15 12:55:03;;;;;;;5.20;4.70;;;26.30;98.70;;;;;;6128099;23;20421;-83
2023/08/15 12:57:41;;;;;;;6.03;5.43;;;26.80;98.50;;;;;;6156482;23;20418;-83
2023/08/15 13:00:28;;;;;;;5.10;4.63;;;25.70;97.50;;;;;;6133679;23;20478;-83
2023/08/15 13:06:25;;;;;;;6.03;5.53;;;26.50;98.90;;;;;;6155658;23;20920;-84
2023/08/15 13:09:16;;;;;;;6.40;5.63;;;26.60;99.00;;;;;;6129425;23;20513;-83
2023/08/15 13:12:12;;;;;;;7.07;6.47;;;26.20;99.90;;;;;;6131038;23;20482;-81
2023/08/15 13:18:17;;;;;;;8.90;8.10;;;26.40;99.90;;;;;;6160110;23;20486;-81
2023/08/15 13:49:32;;;;;;;7.47;6.70;;;26.10;99.90;;;;;;6091830;23;20443;-84
2023/08/15 13:52:16;;;;;;;6.63;6.03;;;26.40;99.90;;;;;;6102452;23;20448;-83
2023/08/15 13:55:19;;;;;;;7.00;5.83;;;26.00;99.90;;;;;;6073792;23;20459;-83
2023/08/15 14:14:22;;;;;;;7.40;6.70;;;25.60;99.90;;;;;;6151788;23;20512;-84
2023/08/15 14:20:55;;;;;;;6.47;5.87;;;25.50;99.90;;;;;;6129293;23;20462;-84
2023/08/15 14:24:06;;;;;;;6.60;5.80;;;25.70;99.90;;;;;;6130006;23;20403;-83
2023/08/15 14:26:48;;;;;;;6.53;6.03;;;25.40;99.90;;;;;;6154338;23;20769;-83
2023/08/15 14:29:21;;;;;;;6.77;5.10;;;25.60;99.90;;;;;;6154249;23;20407;-83
2023/08/15 14:32:06;;;;;;;5.30;4.90;;;26.00;99.90;;;;;;6130987;23;20465;-82
2023/08/15 14:34:44;;;;;;;5.03;4.63;;;26.10;99.90;;;;;;6130582;23;20375;-81
2023/08/15 14:37:39;;;;;;;4.40;4.10;;;26.60;99.90;;;;;;6146832;23;20421;-81
2023/08/15 14:40:19;;;;;;;5.67;4.47;;;26.30;99.90;;;;;;6145977;23;20430;-83
2023/08/15 14:42:57;;;;;;;4.90;4.00;;;25.40;99.90;;;;;;6135245;23;20937;-83
2023/08/15 14:45:54;;;;;;;4.00;3.70;;;26.40;99.90;;;;;;6105520;23;20967;-82
2023/08/15 15:06:38;;;;;;;6.63;5.60;;;26.60;99.90;;;;;;6126322;23;20446;-84
2023/08/15 15:09:09;;;;;;;5.00;4.60;;;27.00;99.90;;;;;;6127257;23;20427;-82
2023/08/15 15:11:44;;;;;;;5.63;4.40;;;26.80;99.90;;;;;;6138284;23;20458;-84
2023/08/15 15:19:16;;;;;;;7.30;6.33;;;27.10;99.90;;;;;;6122049;23;20486;-85
2023/08/15 15:26:17;;;;;;;7.17;5.70;;;27.00;99.90;;;;;;6077818;23;20503;-84
2023/08/15 15:28:48;;;;;;;6.10;5.60;;;26.90;99.90;;;;;;6099258;23;20410;-84
2023/08/15 15:31:47;;;;;;;6.77;5.53;;;26.60;99.90;;;;;;6094279;23;20395;-84
2023/08/15 15:34:31;;;;;;;5.90;5.33;;;27.30;99.90;;;;;;6120477;23;20396;-84
2023/08/15 15:37:04;;;;;;;6.23;5.83;;;26.90;99.90;;;;;;6097659;23;20460;-84
2023/08/15 15:40:17;;;;;;;5.97;5.47;;;26.90;99.90;;;;;;6102867;23;20486;-83
2023/08/15 15:42:50;;;;;;;5.80;5.37;;;26.90;99.90;;;;;;6098235;23;20419;-82
2023/08/15 15:45:26;;;;;;;5.23;4.73;;;27.10;99.90;;;;;;6122623;23;20443;-84
2023/08/15 15:48:04;;;;;;;5.93;5.40;;;26.90;99.90;;;;;;6103562;23;20835;-85
2023/08/15 15:50:51;;;;;;;6.07;5.47;;;26.60;99.90;;;;;;6101567;23;20502;-83
2023/08/15 15:53:29;;;;;;;4.87;4.57;;;26.60;99.90;;;;;;6099553;23;20443;-85
2023/08/15 15:56:07;;;;;;;5.10;4.60;;;27.00;99.90;;;;;;6099679;23;20508;-85
2023/08/15 15:58:41;;;;;;;5.90;5.30;;;27.10;99.90;;;;;;6099162;23;20415;-85
2023/08/15 16:01:17;;;;;;;5.60;5.10;;;26.90;99.90;;;;;;6098277;23;20494;-85
2023/08/15 16:04:20;;;;;;;6.60;5.67;;;26.40;99.90;;;;;;6110222;23;20421;-85
2023/08/15 16:07:59;;;;;;;5.07;4.67;;;26.60;99.90;;;;;;5065924;27;20336;-84
2023/08/15 16:11:01;;;;;;;7.23;4.97;;;27.10;99.90;;;;;;5061102;28;20459;-81
2023/08/15 16:13:45;;;;;;;6.07;5.33;;;27.00;99.90;;;;;;5021838;28;20617;-84
2023/08/15 16:17:09;;;;;;;6.70;5.10;;;26.70;99.90;;;;;;5041364;28;21088;-82
2023/08/15 16:30:32;;;;;;;7.00;4.87;;;26.60;99.90;;;;;;5225975;22;20510;-84
2023/08/15 16:39:47;;;;;;;5.27;4.87;;;26.40;99.90;;;;;;5740635;22;20565;-84
2023/08/15 16:59:06;;;;;;;5.77;5.27;;;26.50;99.90;;;;;;5212946;22;20283;-82
2023/08/15 17:01:36;;;;;;;4.97;4.57;;;26.70;99.90;;;;;;5095904;28;20533;-82
2023/08/15 17:04:36;;;;;;;6.80;5.40;;;26.50;99.90;;;;;;5096716;28;20454;-81
2023/08/15 17:07:28;;;;;;;6.33;5.07;;;26.50;99.90;;;;;;5487525;22;20499;-84
2023/08/15 17:10:12;;;;;;;4.90;4.50;;;26.70;99.90;;;;;;5082547;28;20451;-82
2023/08/15 17:13:10;;;;;;;5.53;5.13;;;26.60;99.90;;;;;;5061815;28;20455;-84
2023/08/15 17:15:59;;;;;;;;;;;;;;;;;;;;;
2023/08/15 17:18:55;;;;;;;7.17;5.40;;;26.70;99.90;;;;;;5042035;28;20474;-84
2023/08/15 17:21:31;;;;;;;5.10;4.67;;;26.30;99.90;;;;;;5039447;28;20461;-84
2023/08/15 17:24:22;;;;;;;5.27;4.87;;;26.40;99.90;;;;;;5036698;28;20456;-83
2023/08/15 17:26:56;;;;;;;4.50;4.20;;;26.60;99.90;;;;;;5032291;28;20535;-83
2023/08/15 17:29:43;;;;;;;5.80;5.27;;;26.70;99.90;;;;;;5449218;22;20488;-83
2023/08/15 17:32:20;;;;;;;5.70;5.20;;;26.70;99.90;;;;;;5049023;28;20449;-84
2023/08/15 17:35:05;;;;;;;5.40;4.90;;;27.10;99.90;;;;;;5048485;28;20453;-81
2023/08/15 17:37:44;;;;;;;6.80;4.97;;;26.90;99.90;;;;;;5047753;28;20578;-86
2023/08/15 17:40:22;;;;;;;5.27;4.80;;;26.80;99.90;;;;;;5046509;28;20448;-81
2023/08/15 17:43:22;;;;;;;5.93;5.40;;;27.10;99.90;;;;;;5031519;28;20468;-84
2023/08/15 17:45:56;;;;;;;6.53;4.80;;;26.10;99.90;;;;;;5031362;28;20600;-83
2023/08/15 17:51:43;;;;;;;5.47;4.97;;;25.30;99.90;;;;;;5029388;28;20482;-81
2023/08/15 17:57:27;;;;;;;6.17;5.53;;;26.40;99.90;;;;;;5373204;22;20855;-83
2023/08/15 18:00:28;;;;;;;6.57;5.67;;;26.30;99.90;;;;;;5303861;22;20500;-82
2023/08/15 18:04:05;;;;;;;;;;;;;;;;;;;;;
2023/08/15 18:06:43;;;;;;;6.37;5.07;;;26.50;99.90;;;;;;5044633;28;20513;-84
2023/08/15 18:09:32;;;;;;;5.43;4.93;;;26.00;99.90;;;;;;5043677;28;20453;-84
2023/08/15 18:12:18;;;;;;;5.07;4.60;;;26.80;99.90;;;;;;5042537;28;20541;-82
2023/08/15 18:15:07;;;;;;;4.70;4.30;;;26.40;99.90;;;;;;5050256;28;20450;-82
2023/08/15 18:18:28;;;;;;;5.20;4.70;;;25.50;99.90;;;;;;5044891;28;21030;-85
2023/08/15 18:21:05;;;;;;;5.30;4.90;;;25.70;99.90;;;;;;5043771;28;20484;-84
2023/08/15 18:23:47;;;;;;;5.40;5.00;;;25.80;99.90;;;;;;5043490;28;20511;-82
2023/08/15 18:26:51;;;;;;;5.40;4.90;;;25.60;99.90;;;;;;5213007;23;20572;-83
2023/08/15 18:29:35;;;;;;;5.30;4.90;;;26.10;99.90;;;;;;5079692;22;20509;-85
2023/08/15 18:32:18;;;;;;;7.13;4.90;;;25.90;99.90;;;;;;5034914;28;20471;-83
2023/08/15 18:34:56;;;;;;;5.07;4.67;;;25.80;99.90;;;;;;5020156;28;20470;-83
2023/08/15 18:38:23;;;;;;;5.10;4.70;;;26.00;99.90;;;;;;5018079;28;20523;-84
2023/08/15 18:43:43;;;;;;;6.90;6.30;;;25.60;99.90;;;;;;5104633;22;20488;-82
2023/08/15 18:46:39;;;;;;;5.50;5.00;;;25.50;99.90;;;;;;5054876;28;20492;-83
2023/08/15 18:49:25;;;;;;;6.27;5.57;;;25.60;99.90;;;;;;5056041;28;20495;-83
2023/08/15 18:51:56;;;;;;;5.93;5.40;;;25.50;99.90;;;;;;5050072;28;20456;-83
2023/08/15 18:54:37;;;;;;;5.70;5.10;;;26.00;99.90;;;;;;5046767;28;20479;-83
2023/08/15 18:57:14;;;;;;;4.40;4.10;;;25.50;99.90;;;;;;5054342;28;20482;-82
2023/08/15 18:59:49;;;;;;;5.37;4.87;;;25.40;99.90;;;;;;5056417;28;20529;-85
2023/08/15 19:02:25;;;;;;;4.53;4.13;;;25.60;99.90;;;;;;5054967;28;20491;-82
2023/08/15 19:04:58;;;;;;;4.53;4.13;;;25.00;99.90;;;;;;5061822;28;20457;-83
2023/08/15 19:07:37;;;;;;;4.03;3.73;;;25.30;99.90;;;;;;5062064;28;20511;-85
2023/08/15 19:10:10;;;;;;;4.20;3.90;;;25.10;99.90;;;;;;5061206;28;21845;-82
2023/08/15 19:12:45;;;;;;;4.10;3.80;;;25.00;99.90;;;;;;5063948;28;20509;-82
2023/08/15 19:15:28;;;;;;;4.57;4.17;;;25.90;99.90;;;;;;5077369;28;20453;-85
2023/08/15 19:17:59;;;;;;;3.80;3.50;;;24.80;99.90;;;;;;5068321;28;20456;-85
2023/08/15 19:20:32;;;;;;;4.33;3.93;;;24.80;99.90;;;;;;5066004;28;20520;-82
2023/08/15 19:23:05;;;;;;;3.70;3.40;;;25.20;99.90;;;;;;5068181;28;20478;-83
2023/08/15 19:25:59;;;;;;;3.80;3.50;;;25.40;99.90;;;;;;5068297;28;20475;-84
2023/08/15 19:28:27;;;;;;;4.00;3.60;;;24.70;99.90;;;;;;5067494;28;20504;-84
2023/08/15 19:31:13;;;;;;;3.90;3.50;;;24.60;99.90;;;;;;5060000;28;21394;-82
2023/08/15 19:33:49;;;;;;;3.47;3.20;;;25.30;99.90;;;;;;5053037;28;21753;-83
2023/08/15 19:36:27;;;;;;;3.57;3.10;;;24.90;99.90;;;;;;5386872;22;20541;-84
2023/08/15 19:38:56;;;;;;;3.90;3.60;;;25.00;99.90;;;;;;5055018;28;20451;-83
2023/08/15 19:41:33;;;;;;;6.33;4.13;;;24.90;99.90;;;;;;5051084;28;20464;-85
2023/08/15 19:44:08;;;;;;;3.97;3.67;;;25.50;99.90;;;;;;5053659;28;20459;-83
2023/08/15 19:54:51;;;;;;;3.30;3.10;;;24.40;99.90;;;;;;3362386;22;21235;-84
2023/08/15 19:57:27;;;;;;;4.73;3.80;;;24.40;99.90;;;;;;5167873;22;21326;-83
2023/08/15 20:00:10;;;;;;;4.30;3.90;;;24.40;99.90;;;;;;5067105;28;20467;-81
2023/08/15 20:03:36;;;;;;;4.87;3.80;;;24.30;99.90;;;;;;5059717;28;20962;-84
2023/08/15 20:06:15;;;;;;;3.97;3.60;;;24.40;99.90;;;;;;5027768;28;22022;-82
2023/08/15 20:09:38;;;;;;;4.10;3.80;;;24.60;99.90;;;;;;5026313;28;20528;-83
2023/08/15 20:13:13;;;;;;;4.40;4.00;;;24.50;99.90;;;;;;4980467;28;20475;-84
2023/08/15 20:15:50;;;;;;;3.60;3.37;;;24.60;99.90;;;;;;5062687;28;20483;-83
2023/08/15 20:22:06;;;;;;;7.90;3.50;;;24.60;99.90;;;;;;5043585;28;20448;-84
2023/08/15 20:27:21;;;;;;;3.23;2.93;;;24.30;99.90;;;;;;5081577;22;20489;-83
2023/08/15 20:30:06;;;;;;;3.10;2.90;;;23.90;99.90;;;;;;5074286;28;20470;-85
2023/08/15 20:32:36;;;;;;;3.40;3.20;;;24.40;99.90;;;;;;5050440;28;20500;-82
2023/08/15 20:35:10;;;;;;;3.70;3.40;;;24.70;99.90;;;;;;5052382;28;20682;-82
2023/08/15 20:37:52;;;;;;;5.13;3.53;;;24.40;99.90;;;;;;5060350;28;20499;-84
2023/08/15 20:40:46;;;;;;;4.20;3.80;;;24.50;99.90;;;;;;5057629;28;20524;-87
2023/08/15 20:48:02;;;;;;;4.00;3.70;;;24.30;99.90;;;;;;4980166;28;20554;-82
2023/08/15 20:50:44;;;;;;;4.10;3.70;;;24.50;99.90;;;;;;4991129;28;20433;-84
2023/08/15 20:53:34;;;;;;;4.30;3.57;;;24.00;99.90;;;;;;5055544;28;20496;-84
2023/08/15 20:56:07;;;;;;;4.13;3.83;;;24.80;99.90;;;;;;5063436;28;21077;-84
2023/08/15 20:59:04;;;;;;;3.70;3.20;;;24.20;99.90;;;;;;5060477;28;20448;-84
2023/08/15 21:01:45;;;;;;;4.87;4.47;;;24.00;99.90;;;;;;5035271;28;20455;-82
2023/08/15 21:09:02;;;;;;;;;;;;;;;;;;;;;
2023/08/15 21:12:07;;;;;;;4.37;3.97;;;24.70;99.90;;;;;;5073626;28;20427;-83